createdAt,value
2023-05-04T00:00:41.866Z,6.17
2023-05-04T00:03:10.396Z,7.37
2023-05-04T00:05:38.676Z,7.13
2023-05-04T00:08:09.036Z,7.07
2023-05-04T00:10:37.355Z,6.37
2023-05-04T00:13:05.614Z,6.83
2023-05-04T00:15:33.909Z,6.57
2023-05-04T00:18:02.309Z,6.70
2023-05-04T00:20:30.616Z,7.20
2023-05-04T00:22:58.964Z,6.50
2023-05-04T00:25:28.610Z,6.50
2023-05-04T00:27:56.968Z,6.97
2023-05-04T00:30:25.262Z,6.83
2023-05-04T00:32:54.133Z,6.60
2023-05-04T00:35:22.434Z,6.70
2023-05-04T00:37:51.228Z,6.83
2023-05-04T00:40:19.511Z,7.10
2023-05-04T00:42:49.249Z,7.13
2023-05-04T00:45:17.607Z,6.67
2023-05-04T00:47:46.016Z,7.20
2023-05-04T00:50:14.360Z,6.70
2023-05-04T00:52:44.768Z,7.57
2023-05-04T00:55:14.508Z,7.03
2023-05-04T00:57:43.404Z,6.90
2023-05-04T01:00:14.200Z,6.60
2023-05-04T01:02:42.787Z,7.00
2023-05-04T01:05:12.511Z,6.93
2023-05-04T01:07:53.183Z,6.50
2023-05-04T01:10:25.464Z,7.40
2023-05-04T01:12:59.208Z,6.67
2023-05-04T01:15:29.636Z,7.20
2023-05-04T01:17:57.989Z,6.97
2023-05-04T01:20:26.278Z,7.67
2023-05-04T01:22:56.280Z,7.37
2023-05-04T01:25:28.376Z,7.30
2023-05-04T01:28:01.014Z,7.17
2023-05-04T01:30:33.558Z,7.63
2023-05-04T01:33:02.458Z,7.67
2023-05-04T01:35:31.230Z,7.77
2023-05-04T01:38:01.291Z,6.90
2023-05-04T01:40:29.552Z,7.27
2023-05-04T01:42:58.005Z,7.63
2023-05-04T01:45:26.287Z,7.27
2023-05-04T01:47:54.711Z,7.27
2023-05-04T01:50:23.029Z,7.77
2023-05-04T01:52:51.328Z,7.63
2023-05-04T01:55:21.095Z,8.27
2023-05-04T01:57:49.435Z,8.50
2023-05-04T02:00:18.353Z,7.97
2023-05-04T02:02:46.695Z,7.90
2023-05-04T02:05:19.215Z,7.80
2023-05-04T02:07:47.552Z,8.17
2023-05-04T02:10:16.225Z,8.93
2023-05-04T02:12:46.420Z,8.20
2023-05-04T02:15:15.003Z,8.70
2023-05-04T02:17:44.495Z,8.60
2023-05-04T02:20:14.005Z,7.50
2023-05-04T02:22:46.525Z,9.03
2023-05-04T02:25:14.819Z,8.17
2023-05-04T02:27:43.152Z,8.47
2023-05-04T02:30:14.747Z,8.60
2023-05-04T02:32:43.169Z,8.37
2023-05-04T02:35:11.547Z,8.40
2023-05-04T02:37:39.902Z,8.80
2023-05-04T02:40:09.670Z,8.37
2023-05-04T02:42:37.975Z,9.43
2023-05-04T02:45:07.699Z,9.07
2023-05-04T02:47:37.542Z,8.80
2023-05-04T02:50:07.231Z,9.37
2023-05-04T02:52:35.817Z,8.77
2023-05-04T02:55:04.167Z,8.33
2023-05-04T02:57:32.637Z,8.30
2023-05-04T03:00:00.897Z,8.73
2023-05-04T03:02:29.264Z,7.80
2023-05-04T03:04:59.006Z,8.30
2023-05-04T03:07:27.702Z,8.80
2023-05-04T03:09:56.047Z,7.70
2023-05-04T03:12:25.616Z,8.90
2023-05-04T03:14:53.936Z,8.27
2023-05-04T03:17:22.278Z,8.50
2023-05-04T03:19:50.551Z,8.20
2023-05-04T03:22:20.699Z,9.17
2023-05-04T03:24:49.076Z,8.73
2023-05-04T03:27:18.456Z,8.23
2023-05-04T03:29:47.593Z,7.60
2023-05-04T03:32:16.774Z,9.10
2023-05-04T03:34:45.927Z,8.13
2023-05-04T03:37:15.203Z,7.70
2023-05-04T03:39:44.905Z,7.90
2023-05-04T03:42:13.191Z,7.70
2023-05-04T03:44:42.283Z,7.33
2023-05-04T03:47:10.804Z,7.03
2023-05-04T03:49:39.227Z,7.63
2023-05-04T03:52:07.916Z,7.53
2023-05-04T03:54:36.924Z,7.43
2023-05-04T03:57:06.725Z,7.00
2023-05-04T03:59:36.764Z,7.63
2023-05-04T04:02:07.247Z,6.87
2023-05-04T04:04:35.831Z,7.70
2023-05-04T04:07:04.106Z,7.67
2023-05-04T04:09:32.757Z,7.07
2023-05-04T04:12:01.065Z,7.33
2023-05-04T04:14:31.127Z,8.10
2023-05-04T04:16:59.407Z,7.57
2023-05-04T04:19:27.950Z,7.43
2023-05-04T04:21:58.315Z,7.27
2023-05-04T04:24:26.593Z,7.47
2023-05-04T04:26:55.090Z,6.97
2023-05-04T04:29:23.356Z,7.77
2023-05-04T04:31:53.009Z,8.40
2023-05-04T04:34:21.361Z,6.73
2023-05-04T04:36:49.947Z,7.83
2023-05-04T04:39:18.336Z,7.40
2023-05-04T04:41:46.673Z,8.20
2023-05-04T04:44:15.061Z,7.60
2023-05-04T04:46:44.715Z,7.90
2023-05-04T04:49:14.465Z,7.50
2023-05-04T04:51:42.664Z,8.00
2023-05-04T04:54:11.382Z,7.40
2023-05-04T04:56:40.626Z,7.40
2023-05-04T04:59:10.716Z,7.73
2023-05-04T05:01:39.075Z,7.07
2023-05-04T05:04:07.710Z,7.60
2023-05-04T05:06:37.867Z,7.47
2023-05-04T05:09:06.202Z,7.70
2023-05-04T05:11:34.484Z,7.73
2023-05-04T05:14:02.739Z,6.97
2023-05-04T05:16:31.133Z,6.60
2023-05-04T05:18:59.424Z,7.47
2023-05-04T05:21:27.776Z,7.37
2023-05-04T05:23:57.514Z,8.00
2023-05-04T05:26:25.970Z,7.37
2023-05-04T05:28:54.364Z,7.60
2023-05-04T05:31:22.766Z,7.75
2023-05-04T05:33:51.103Z,7.15
2023-05-04T05:36:19.390Z,7.53
2023-05-04T05:38:49.733Z,7.70
2023-05-04T05:41:20.148Z,7.53
2023-05-04T05:43:48.405Z,7.77
2023-05-04T05:46:16.706Z,7.23
2023-05-04T05:48:45.040Z,7.37
2023-05-04T05:51:13.383Z,7.40
2023-05-04T05:53:42.841Z,7.15
2023-05-04T05:56:11.145Z,7.97
2023-05-04T05:58:41.026Z,7.68
2023-05-04T06:01:09.324Z,8.02
2023-05-04T06:03:37.815Z,7.47
2023-05-04T06:06:06.464Z,7.68
2023-05-04T06:08:34.908Z,7.93
2023-05-04T06:11:03.227Z,7.43
2023-05-04T06:13:31.477Z,7.90
2023-05-04T06:16:01.307Z,8.07
2023-05-04T06:18:29.647Z,7.75
2023-05-04T06:21:01.362Z,7.65
2023-05-04T06:23:30.161Z,7.75
2023-05-04T06:25:58.618Z,7.68
2023-05-04T06:28:26.983Z,8.27
2023-05-04T06:30:55.290Z,7.55
2023-05-04T06:33:25.000Z,7.88
2023-05-04T06:35:53.940Z,7.38
2023-05-04T06:38:22.490Z,7.70
2023-05-04T06:40:51.025Z,7.60
2023-05-04T06:43:19.265Z,7.53
2023-05-04T06:45:47.650Z,7.88
2023-05-04T06:48:15.964Z,8.60
2023-05-04T06:50:45.678Z,8.40
2023-05-04T06:53:13.977Z,8.13
2023-05-04T06:55:42.327Z,7.90
2023-05-04T06:58:10.576Z,8.18
2023-05-04T07:00:38.860Z,8.60
2023-05-04T07:03:07.173Z,7.78
2023-05-04T07:05:38.164Z,8.13
2023-05-04T07:08:09.871Z,8.90
2023-05-04T07:10:42.284Z,8.18
2023-05-04T07:13:11.218Z,8.60
2023-05-04T07:15:40.208Z,9.80
2023-05-04T07:18:08.665Z,8.60
2023-05-04T07:20:37.379Z,8.57
2023-05-04T07:23:07.184Z,8.95
2023-05-04T07:25:35.636Z,10.05
2023-05-04T07:28:07.273Z,8.60
2023-05-04T07:30:35.384Z,8.88
2023-05-04T07:33:03.447Z,8.80
2023-05-04T07:35:31.519Z,9.30
2023-05-04T07:37:59.536Z,8.68
2023-05-04T07:40:28.995Z,7.78
2023-05-04T07:42:57.156Z,8.13
2023-05-04T07:45:28.188Z,8.55
2023-05-04T07:47:56.383Z,8.20
2023-05-04T07:50:24.505Z,8.20
2023-05-04T07:52:52.574Z,8.20
2023-05-04T07:55:20.756Z,7.88
2023-05-04T07:57:50.150Z,7.75
2023-05-04T08:00:19.884Z,8.02
2023-05-04T08:02:48.225Z,7.10
2023-05-04T08:05:16.450Z,7.90
2023-05-04T08:07:47.316Z,7.57
2023-05-04T08:10:15.389Z,7.15
2023-05-04T08:12:44.069Z,7.57
2023-05-04T08:15:14.752Z,7.88
2023-05-04T08:17:42.864Z,7.15
2023-05-04T08:20:11.465Z,6.70
2023-05-04T08:22:41.679Z,6.78
2023-05-04T08:25:12.678Z,6.90
2023-05-04T08:27:41.177Z,6.80
2023-05-04T08:30:10.186Z,6.78
2023-05-04T08:32:40.122Z,6.38
2023-05-04T08:35:08.618Z,6.82
2023-05-04T08:37:36.886Z,6.78
2023-05-04T08:40:05.875Z,6.60
2023-05-04T08:42:34.722Z,6.18
2023-05-04T08:45:02.921Z,6.55
2023-05-04T08:47:31.204Z,6.63
2023-05-04T08:50:01.117Z,6.13
2023-05-04T08:52:29.697Z,5.93
2023-05-04T08:54:58.789Z,5.97
2023-05-04T08:57:27.663Z,5.68
2023-05-04T08:59:56.621Z,6.15
2023-05-04T09:02:26.118Z,6.07
2023-05-04T09:04:55.366Z,6.15
2023-05-04T09:07:24.791Z,5.20
2023-05-04T09:09:53.411Z,5.95
2023-05-04T09:12:21.436Z,6.57
2023-05-04T09:14:49.501Z,5.82
2023-05-04T09:17:25.732Z,5.47
2023-05-04T09:20:01.274Z,5.32
2023-05-04T09:22:31.456Z,5.47
2023-05-04T09:25:11.394Z,5.50
2023-05-04T09:27:41.445Z,5.25
2023-05-04T09:30:14.672Z,5.20
2023-05-04T09:32:47.301Z,5.57
2023-05-04T09:35:25.702Z,5.85
2023-05-04T09:38:02.243Z,5.28
2023-05-04T09:40:34.461Z,5.20
2023-05-04T09:43:06.680Z,4.75
2023-05-04T09:45:41.335Z,4.63
2023-05-04T09:48:20.103Z,4.72
2023-05-04T09:50:55.647Z,5.07
2023-05-04T09:53:26.553Z,4.97
2023-05-04T09:56:11.365Z,5.13
2023-05-04T09:58:40.304Z,4.40
2023-05-04T10:01:10.447Z,5.00
2023-05-04T10:03:39.054Z,4.82
2023-05-04T10:06:09.257Z,5.18
2023-05-04T10:08:40.160Z,4.45
2023-05-04T10:11:09.145Z,4.80
2023-05-04T10:13:37.476Z,4.68
2023-05-04T10:16:32.932Z,4.50
2023-05-04T10:19:39.222Z,4.57
2023-05-04T10:22:27.713Z,4.75
2023-05-04T10:25:19.744Z,4.63
2023-05-04T10:27:58.620Z,4.82
2023-05-04T10:30:27.174Z,4.10
2023-05-04T10:33:02.236Z,4.50
2023-05-04T10:35:30.588Z,4.43
2023-05-04T10:37:59.199Z,4.97
2023-05-04T10:40:37.944Z,4.50
2023-05-04T10:43:06.503Z,4.70
2023-05-04T10:45:38.837Z,4.85
2023-05-04T10:48:09.599Z,5.10
2023-05-04T10:50:45.128Z,4.90
2023-05-04T10:53:13.733Z,4.53
2023-05-04T10:55:42.835Z,5.03
2023-05-04T10:58:14.967Z,4.82
2023-05-04T11:00:45.986Z,4.72
2023-05-04T11:03:23.613Z,4.68
2023-05-04T11:05:54.800Z,4.95
2023-05-04T11:08:32.104Z,5.18
2023-05-04T11:11:03.407Z,4.78
2023-05-04T11:13:36.431Z,5.05
2023-05-04T11:16:04.970Z,4.55
2023-05-04T11:18:37.480Z,4.60
2023-05-04T11:21:06.187Z,4.55
2023-05-04T11:23:34.763Z,4.60
2023-05-04T11:26:07.929Z,4.85
2023-05-04T11:28:38.322Z,4.63
2023-05-04T11:31:17.273Z,4.15
2023-05-04T11:33:48.293Z,4.47
2023-05-04T11:36:17.778Z,4.40
2023-05-04T11:38:46.269Z,4.25
2023-05-04T11:41:14.615Z,4.28
2023-05-04T11:43:45.424Z,4.38
2023-05-04T11:46:14.243Z,4.38
2023-05-04T11:48:42.988Z,4.95
2023-05-04T11:51:12.906Z,4.68
2023-05-04T11:53:42.995Z,4.65
2023-05-04T11:56:11.501Z,4.57
2023-05-04T11:58:39.911Z,4.88
2023-05-04T12:01:08.276Z,4.00
2023-05-04T12:03:53.222Z,3.78
2023-05-04T12:06:34.173Z,12.73
2023-05-04T12:09:06.908Z,4.22
2023-05-04T12:11:38.407Z,3.90
2023-05-04T12:14:09.716Z,3.50
2023-05-04T12:16:38.491Z,4.00
2023-05-04T12:19:10.834Z,3.90
2023-05-04T12:21:52.579Z,3.17
2023-05-04T12:24:22.797Z,4.00
2023-05-04T12:26:51.245Z,3.83
2023-05-04T12:29:19.592Z,4.07
2023-05-04T12:31:47.964Z,3.90
2023-05-04T12:34:16.318Z,3.70
2023-05-04T12:36:46.358Z,3.60
2023-05-04T12:39:14.781Z,3.58
2023-05-04T12:41:43.074Z,3.72
2023-05-04T12:44:14.336Z,4.35
2023-05-04T12:46:43.204Z,3.60
2023-05-04T12:49:11.936Z,3.80
2023-05-04T12:51:40.222Z,3.38
2023-05-04T12:54:09.849Z,3.10
2023-05-04T12:56:39.768Z,3.25
2023-05-04T12:59:08.066Z,3.28
2023-05-04T13:01:36.440Z,3.15
2023-05-04T13:04:04.718Z,3.58
2023-05-04T13:06:33.017Z,3.47
2023-05-04T13:09:03.956Z,3.08
2023-05-04T13:11:33.666Z,3.50
2023-05-04T13:14:02.232Z,3.33
2023-05-04T13:16:30.803Z,3.47
2023-05-04T13:18:59.358Z,3.20
2023-05-04T13:21:27.605Z,3.30
2023-05-04T13:23:57.467Z,2.85
2023-05-04T13:26:25.921Z,3.28
2023-05-04T13:28:55.516Z,4.03
2023-05-04T13:31:23.653Z,3.55
2023-05-04T13:33:51.927Z,3.00
2023-05-04T13:36:20.105Z,3.58
2023-05-04T13:38:48.522Z,2.90
2023-05-04T13:41:16.611Z,3.35
2023-05-04T13:43:44.637Z,3.60
2023-05-04T13:46:14.129Z,3.47
2023-05-04T13:48:43.816Z,2.95
2023-05-04T13:51:12.361Z,3.00
2023-05-04T13:53:40.459Z,2.70
2023-05-04T13:56:08.563Z,2.90
2023-05-04T13:58:36.624Z,3.58
2023-05-04T14:01:04.708Z,3.03
2023-05-04T14:03:34.124Z,3.22
2023-05-04T14:06:02.140Z,3.00
2023-05-04T14:08:30.152Z,2.95
2023-05-04T14:10:58.719Z,3.38
2023-05-04T14:13:26.771Z,3.60
2023-05-04T14:15:54.773Z,3.85
2023-05-04T14:18:22.796Z,3.40
2023-05-04T14:20:52.239Z,2.90
2023-05-04T14:23:20.352Z,2.85
2023-05-04T14:25:51.625Z,3.10
2023-05-04T14:28:19.740Z,2.97
2023-05-04T14:30:47.739Z,3.20
2023-05-04T14:33:15.826Z,3.65
2023-05-04T14:35:48.020Z,3.55
2023-05-04T14:38:18.049Z,3.55
2023-05-04T14:40:48.356Z,2.70
2023-05-04T14:43:17.552Z,3.38
2023-05-04T14:45:45.668Z,3.20
2023-05-04T14:48:13.719Z,3.67
2023-05-04T14:50:42.569Z,2.90
2023-05-04T14:53:10.828Z,3.30
2023-05-04T14:55:41.981Z,3.05
2023-05-04T14:58:10.383Z,2.72
2023-05-04T15:00:38.949Z,3.20
2023-05-04T15:03:07.626Z,3.42
2023-05-04T15:05:35.802Z,3.70
2023-05-04T15:08:04.255Z,2.95
2023-05-04T15:10:32.317Z,3.53
2023-05-04T15:13:03.262Z,3.28
2023-05-04T15:15:31.367Z,3.65
2023-05-04T15:17:59.434Z,3.05
2023-05-04T15:20:27.695Z,3.10
2023-05-04T15:22:55.817Z,3.33
2023-05-04T15:25:25.165Z,2.97
2023-05-04T15:27:53.316Z,2.97
2023-05-04T15:30:23.436Z,3.17
2023-05-04T15:32:51.760Z,3.30
2023-05-04T15:35:20.022Z,2.97
2023-05-04T15:37:48.112Z,3.10
2023-05-04T15:40:16.245Z,2.90
2023-05-04T15:42:44.322Z,3.40
2023-05-04T15:45:12.502Z,3.53
2023-05-04T15:47:42.287Z,3.05
2023-05-04T15:50:10.791Z,2.83
2023-05-04T15:52:39.630Z,3.10
2023-05-04T15:55:23.478Z,2.85
2023-05-04T15:57:54.437Z,3.50
2023-05-04T16:00:22.982Z,3.40
2023-05-04T16:02:52.594Z,2.78
2023-05-04T16:05:21.453Z,3.10
2023-05-04T16:07:49.564Z,3.03
2023-05-04T16:10:17.791Z,3.00
2023-05-04T16:12:45.883Z,3.15
2023-05-04T16:15:14.495Z,3.47
2023-05-04T16:17:42.551Z,2.80
2023-05-04T16:20:12.869Z,2.72
2023-05-04T16:22:40.959Z,3.28
2023-05-04T16:25:11.172Z,3.78
2023-05-04T16:27:40.761Z,3.00
2023-05-04T16:30:10.371Z,3.15
2023-05-04T16:32:38.853Z,2.97
2023-05-04T16:35:08.202Z,3.30
2023-05-04T16:37:38.674Z,3.20
2023-05-04T16:40:11.424Z,3.13
2023-05-04T16:42:39.616Z,3.45
2023-05-04T16:45:08.686Z,3.17
2023-05-04T16:47:37.010Z,3.13
2023-05-04T16:50:06.709Z,3.33
2023-05-04T16:52:34.911Z,3.03
2023-05-04T16:55:04.690Z,3.05
2023-05-04T16:57:33.022Z,3.00
2023-05-04T17:00:01.768Z,3.50
2023-05-04T17:02:30.018Z,3.15
2023-05-04T17:04:58.462Z,3.00
2023-05-04T17:07:26.785Z,2.97
2023-05-04T17:09:55.559Z,3.40
2023-05-04T17:12:24.952Z,2.60
2023-05-04T17:14:53.068Z,3.05
2023-05-04T17:17:21.121Z,3.13
2023-05-04T17:19:50.326Z,2.90
2023-05-04T17:22:18.592Z,2.88
2023-05-04T17:24:46.741Z,2.90
2023-05-04T17:27:14.817Z,3.28
2023-05-04T17:29:44.659Z,2.97
2023-05-04T17:32:12.785Z,2.80
2023-05-04T17:34:42.174Z,3.00
2023-05-04T17:37:10.302Z,2.80
2023-05-04T17:39:38.404Z,3.00
2023-05-04T17:42:07.193Z,3.35
2023-05-04T17:44:35.337Z,2.97
2023-05-04T17:47:04.889Z,2.80
2023-05-04T17:49:32.927Z,2.70
2023-05-04T17:52:01.494Z,3.05
2023-05-04T17:54:29.655Z,3.15
2023-05-04T17:56:57.691Z,2.90
2023-05-04T17:59:25.793Z,2.90
2023-05-04T18:01:53.905Z,2.90
2023-05-04T18:04:23.496Z,2.92
2023-05-04T18:06:51.540Z,2.88
2023-05-04T18:09:19.790Z,2.92
2023-05-04T18:11:48.612Z,3.10
2023-05-04T18:14:16.794Z,3.20
2023-05-04T18:16:44.955Z,3.80
2023-05-04T18:19:13.154Z,3.47
2023-05-04T18:21:42.767Z,3.50
2023-05-04T18:24:10.893Z,3.60
2023-05-04T18:26:38.943Z,3.47
2023-05-04T18:29:17.763Z,3.58
2023-05-04T18:31:47.317Z,3.38
2023-05-04T18:34:15.580Z,3.65
2023-05-04T18:36:46.021Z,3.60
2023-05-04T18:39:15.644Z,4.15
2023-05-04T18:41:43.747Z,3.50
2023-05-04T18:44:18.186Z,3.72
2023-05-04T18:46:46.347Z,3.90
2023-05-04T18:49:15.693Z,3.80
2023-05-04T18:51:45.148Z,3.47
2023-05-04T18:54:15.272Z,3.10
2023-05-04T18:56:43.376Z,3.65
2023-05-04T18:59:11.834Z,3.25
2023-05-04T19:01:40.089Z,3.20
2023-05-04T19:04:08.218Z,3.55
2023-05-04T19:06:36.262Z,3.50
2023-05-04T19:09:06.710Z,3.47
2023-05-04T19:11:34.846Z,3.60
2023-05-04T19:14:03.021Z,3.45
2023-05-04T19:16:31.195Z,3.70
2023-05-04T19:18:59.542Z,3.45
2023-05-04T19:21:28.575Z,3.67
2023-05-04T19:23:56.841Z,3.38
2023-05-04T19:26:26.394Z,3.38
2023-05-04T19:28:54.488Z,3.90
2023-05-04T19:31:22.743Z,3.72
2023-05-04T19:33:52.198Z,3.70
2023-05-04T19:36:20.257Z,3.67
2023-05-04T19:38:48.368Z,3.55
2023-05-04T19:41:16.470Z,3.63
2023-05-04T19:43:46.109Z,3.63
2023-05-04T19:46:38.884Z,4.00
2023-05-04T19:49:35.529Z,3.75
2023-05-04T19:52:12.662Z,4.88
2023-05-04T19:54:55.787Z,4.40
2023-05-04T19:58:08.556Z,3.90
2023-05-04T20:00:43.301Z,4.70
2023-05-04T20:03:14.085Z,4.20
2023-05-04T20:05:45.833Z,4.00
2023-05-04T20:08:25.166Z,4.00
2023-05-04T20:10:54.773Z,3.88
2023-05-04T20:13:23.307Z,3.75
2023-05-04T20:15:53.062Z,3.38
2023-05-04T20:18:21.218Z,3.92
2023-05-04T20:20:56.716Z,4.32
2023-05-04T20:23:33.787Z,4.40
2023-05-04T20:26:07.329Z,3.85
2023-05-04T20:28:43.068Z,4.32
2023-05-04T20:31:36.956Z,4.22
2023-05-04T20:34:11.480Z,3.92
2023-05-04T20:36:41.034Z,4.43
2023-05-04T20:39:16.476Z,4.32
2023-05-04T20:41:57.966Z,4.18
2023-05-04T20:44:27.904Z,4.32
2023-05-04T20:47:02.951Z,3.50
2023-05-04T20:49:55.006Z,4.13
2023-05-04T20:52:42.833Z,4.20
2023-05-04T20:55:46.796Z,4.20
2023-05-04T20:58:20.370Z,3.25
2023-05-04T21:00:52.317Z,3.67
2023-05-04T21:03:42.441Z,4.15
2023-05-04T21:06:19.958Z,3.88
2023-05-04T21:08:51.913Z,4.35
2023-05-04T21:11:27.244Z,4.20
2023-05-04T21:13:55.594Z,5.05
2023-05-04T21:16:26.245Z,5.32
2023-05-04T21:18:55.873Z,5.15
2023-05-04T21:21:23.970Z,5.00
2023-05-04T21:23:52.111Z,5.40
2023-05-04T21:26:25.519Z,5.15
2023-05-04T21:28:53.690Z,5.70
2023-05-04T21:31:21.891Z,5.95
2023-05-04T21:33:55.309Z,5.97
2023-05-04T21:36:29.376Z,6.65
2023-05-04T21:38:57.580Z,6.05
2023-05-04T21:41:27.519Z,6.13
2023-05-04T21:43:56.304Z,5.93
2023-05-04T21:46:26.592Z,6.53
2023-05-04T21:48:54.859Z,6.65
2023-05-04T21:51:24.388Z,6.40
2023-05-04T21:53:52.556Z,6.53
2023-05-04T21:56:21.185Z,6.53
2023-05-04T21:58:49.320Z,6.80
2023-05-04T22:01:18.393Z,6.85
2023-05-04T22:03:47.004Z,6.38
2023-05-04T22:06:15.643Z,6.88
2023-05-04T22:08:45.154Z,7.38
2023-05-04T22:11:13.353Z,7.03
2023-05-04T22:13:42.659Z,7.13
2023-05-04T22:16:10.900Z,7.50
2023-05-04T22:18:39.593Z,6.75
2023-05-04T22:21:09.718Z,6.88
2023-05-04T22:23:37.885Z,7.20
2023-05-04T22:26:07.479Z,7.20
2023-05-04T22:28:35.674Z,6.95
2023-05-04T22:31:03.864Z,7.30
2023-05-04T22:33:32.017Z,7.07
2023-05-04T22:36:00.199Z,7.13
2023-05-04T22:38:28.260Z,6.85
2023-05-04T22:40:56.312Z,7.10
2023-05-04T22:43:25.782Z,7.15
2023-05-04T22:45:56.600Z,7.47
2023-05-04T22:48:25.684Z,7.50
2023-05-04T22:50:54.974Z,7.63
2023-05-04T22:53:23.418Z,7.53
2023-05-04T22:55:51.710Z,7.00
2023-05-04T22:58:19.826Z,8.48
2023-05-04T23:00:49.303Z,7.65
2023-05-04T23:03:17.770Z,7.72
2023-05-04T23:05:46.073Z,7.57
2023-05-04T23:08:14.399Z,8.43
2023-05-04T23:10:45.729Z,7.88
2023-05-04T23:13:14.302Z,7.35
2023-05-04T23:15:42.450Z,8.63
2023-05-04T23:18:12.883Z,7.68
2023-05-04T23:20:41.040Z,7.57
2023-05-04T23:23:09.088Z,8.23
2023-05-04T23:25:37.341Z,7.53
2023-05-04T23:28:05.696Z,8.05
2023-05-04T23:30:33.756Z,7.93
2023-05-04T23:33:01.896Z,7.55
2023-05-04T23:35:31.329Z,7.70
2023-05-04T23:37:59.414Z,8.25
2023-05-04T23:40:27.435Z,7.68
2023-05-04T23:42:55.434Z,8.32
2023-05-04T23:45:23.557Z,8.23
2023-05-04T23:47:51.688Z,8.88
2023-05-04T23:50:19.970Z,7.82
2023-05-04T23:52:49.629Z,7.65
2023-05-04T23:55:18.032Z,7.93
2023-05-04T23:57:46.635Z,7.93
